Flight Track Log - Related Links

Times and Time Zones

All times are in EST time to prevent confusion due to time zone crossing. See the AVN10 flight status page for this flight to view local times or setup timezone preferences in your user account.

Time Position Orientation Groundspeed Altitude Reporting Facility
EST Latitude Longitude Course Direction KTS MPH feet Rate Location/Type
Tue 11:16:00 PM -18.0129 168.1600 206° Southwest  Level FlightAware Approximate
Tue 11:17:00 PM -18.1175 168.1066 206° Southwest  Level FlightAware Approximate
Tue 11:18:00 PM -18.2220 168.0531 206° Southwest  Level FlightAware Approximate
Tue 11:19:00 PM -18.3264 167.9996 206° Southwest  Level FlightAware Approximate
Tue 11:20:00 PM -18.4309 167.9460 206° Southwest  Level FlightAware Approximate
Tue 11:21:00 PM -18.5190 167.8662 204° Southwest  Level Estimated
Tue 11:22:00 PM -18.6254 167.8169 204° Southwest  Level FlightAware Approximate
Tue 11:23:00 PM -18.7317 167.7675 204° Southwest  Level FlightAware Approximate
Tue 11:24:00 PM -18.8381 167.7180 204° Southwest  Level FlightAware Approximate
Tue 11:25:00 PM -18.9444 167.6685 204° Southwest  Level FlightAware Approximate
Tue 11:26:00 PM -19.0507 167.6190 204° Southwest  Level FlightAware Approximate
Tue 11:27:00 PM -19.1570 167.5694 204° Southwest  Level FlightAware Approximate
Tue 11:28:00 PM -19.2633 167.5197 204° Southwest  Level FlightAware Approximate
Tue 11:29:00 PM -19.3696 167.4699 204° Southwest  Level FlightAware Approximate
Tue 11:30:00 PM -19.4758 167.4201 204° Southwest  Level FlightAware Approximate
Tue 11:31:00 PM -19.5821 167.3702 204° Southwest  Level FlightAware Approximate
Tue 11:32:00 PM -19.6883 167.3203 204° Southwest  Level FlightAware Approximate
Tue 11:33:00 PM -19.7945 167.2702 204° Southwest  Level FlightAware Approximate
Tue 11:34:00 PM -19.9007 167.2201 204° Southwest  Level FlightAware Approximate
Tue 11:35:00 PM -20.0069 167.1700 204° Southwest  Level FlightAware Approximate
Tue 11:36:00 PM -20.1131 167.1198 204° Southwest  Level FlightAware Approximate
Tue 11:37:00 PM -20.2193 167.0695 204° Southwest  Level FlightAware Approximate
Tue 11:38:00 PM -20.3254 167.0191 204° Southwest  Level FlightAware Approximate
Tue 11:39:00 PM -20.4316 166.9687 204° Southwest  Level FlightAware Approximate
Tue 11:40:00 PM -20.5377 166.9182 204° Southwest  Level FlightAware Approximate
Tue 11:41:00 PM -20.6438 166.8676 204° Southwest  Level FlightAware Approximate
Tue 11:42:00 PM -20.7499 166.8170 204° Southwest  Level FlightAware Approximate
Tue 11:43:00 PM -20.8560 166.7663 204° Southwest  Level FlightAware Approximate
Tue 11:43:01 PM -20.5240 166.9150 204° Southwest 406 467 36,000  Level FlightAware ADS-B
Tue 11:43:45 PM -20.6000 166.8800 203° Southwest 406 467 36,000  Level FlightAware ADS-B
Tue 11:44:18 PM -20.6570 166.8530 204° Southwest 407 468 36,000  Level FlightAware ADS-B
Tue 11:44:50 PM -20.7120 166.8270 204° Southwest 408 470 36,000  Level FlightAware ADS-B
Tue 11:45:46 PM -20.8110 166.7800 204° Southwest 410 472 36,000  Level FlightAware ADS-B
Tue 11:46:22 PM -20.8710 166.7520 204° Southwest 410 472 36,000  Level FlightAware ADS-B
Tue 11:46:54 PM -20.9290 166.7250 203° Southwest 410 472 36,000  Level FlightAware ADS-B
Tue 11:47:54 PM -21.0340 166.6750 204° Southwest 410 472 36,000  Level FlightAware ADS-B
Tue 11:48:46 PM -21.1230 166.6330 204° Southwest 410 472 36,000  Level FlightAware ADS-B
Tue 11:49:23 PM -21.1860 166.6030 204° Southwest 410 472 36,000  Level FlightAware ADS-B
Tue 11:50:19 PM -21.2860 166.5550 204° Southwest 410 472 36,000  Level FlightAware ADS-B
Tue 11:50:54 PM -21.3440 166.5280 203° Southwest 409 471 36,000  Level FlightAware ADS-B
Tue 11:51:44 PM -21.4320 166.4860 204° Southwest 409 471 36,000  Level FlightAware ADS-B
Tue 11:52:40 PM -21.5300 166.4390 204° Southwest 409 471 36,000  Level FlightAware ADS-B
Tue 11:53:12 PM -21.5840 166.4140 203° Southwest 410 472 36,000  Level FlightAware ADS-B
Tue 11:54:02 PM -21.6730 166.3710 204° Southwest 409 471 36,000  Level FlightAware ADS-B
Tue 11:55:00 PM -21.7730 166.3230 204° Southwest 409 471 36,000  Level FlightAware ADS-B
Tue 11:56:07 PM -21.8890 166.2680 204° Southwest 410 472 36,000  Level FlightAware ADS-B
Tue 11:57:00 PM -21.9800 166.2230 205° Southwest 409 471 36,000  Level FlightAware ADS-B
Tue 11:57:27 PM -22.0220 166.1930 214° Southwest 402 463 36,000  Level FlightAware ADS-B
Tue 11:58:21 PM -22.0950 166.1180 224° Southwest 399 459 36,000  Level FlightAware ADS-B
Tue 11:58:48 PM -22.1300 166.0820 224° Southwest 399 459 36,000  Level FlightAware ADS-B
Tue 11:59:17 PM -22.1690 166.0410 224° Southwest 399 459 36,000  Level FlightAware ADS-B
Wed 12:00:23 AM -22.2560 165.9490 224° Southwest 400 460 36,000  Level FlightAware ADS-B
Wed 12:01:23 AM -22.3350 165.8660 224° Southwest 399 459 36,000  Level FlightAware ADS-B
Wed 12:01:54 AM -22.3770 165.8220 224° Southwest 398 458 36,000 462 Level FlightAware ADS-B
Wed 12:02:54 AM -22.4560 165.7390 224° Southwest 396 456 36,700 931 Climbing FlightAware ADS-B
Wed 12:03:50 AM -22.5290 165.6620 224° Southwest 390 449 37,800 743 Climbing FlightAware ADS-B
Wed 12:04:39 AM -22.5920 165.5950 224° Southwest 392 451 38,000 122 Climbing FlightAware ADS-B
Wed 12:05:28 AM -22.6550 165.5280 224° Southwest 394 453 38,000  Level FlightAware ADS-B
Wed 12:06:04 AM -22.7020 165.4790 224° Southwest 395 455 38,000  Level FlightAware ADS-B
Wed 12:06:58 AM -22.7740 165.4020 225° Southwest 396 456 38,000  Level FlightAware ADS-B
Wed 12:07:50 AM -22.8420 165.3300 224° Southwest 397 457 38,000  Level FlightAware ADS-B
Wed 12:08:17 AM -22.8770 165.2920 225° Southwest 396 456 38,000  Level FlightAware ADS-B
Wed 12:08:47 AM -22.9160 165.2510 224° Southwest 397 457 38,000  Level FlightAware ADS-B
Wed 12:09:47 AM -22.9950 165.1670 224° Southwest 397 457 38,000  Level FlightAware ADS-B
Wed 12:10:43 AM -23.0680 165.0900 224° Southwest 395 455 38,000  Level FlightAware ADS-B
Wed 12:11:38 AM -23.1390 165.0130 225° Southwest 393 452 38,000  Level FlightAware ADS-B
Wed 12:12:35 AM -23.2130 164.9340 224° Southwest 393 452 38,000  Level FlightAware ADS-B
Wed 12:13:13 AM -23.2600 164.8830 225° Southwest 393 452 38,000  Level FlightAware ADS-B
Wed 12:14:04 AM -23.3190 164.8210 224° Southwest 393 452 38,000  Level FlightAware ADS-B
Wed 12:15:04 AM -23.3860 164.7500 224° Southwest 393 452 38,000  Level FlightAware ADS-B
Wed 12:15:53 AM -23.4400 164.6930 224° Southwest 393 452 38,000  Level FlightAware ADS-B
Wed 12:16:41 AM -23.4940 164.6370 224° Southwest 393 452 38,000  Level FlightAware ADS-B
Wed 12:17:41 AM -23.5610 164.5670 224° Southwest 393 452 38,000  Level FlightAware ADS-B
Wed 12:18:18 AM -23.6020 164.5230 225° Southwest 393 452 38,000  Level FlightAware ADS-B
Wed 12:19:19 AM -23.6690 164.4520 224° Southwest 393 452 38,000  Level FlightAware ADS-B
Wed 12:19:55 AM -23.7100 164.4100 223° Southwest 393 452 38,000  Level FlightAware ADS-B
Wed 12:20:44 AM -23.7640 164.3520 225° Southwest 393 452 38,000  Level FlightAware ADS-B
Wed 12:21:33 AM -23.8180 164.2950 224° Southwest 393 452 38,000  Level FlightAware ADS-B
Wed 12:22:33 AM -23.8850 164.2240 224° Southwest 393 452 38,000  Level FlightAware ADS-B
Wed 12:23:21 AM -23.9390 164.1680 223° Southwest 393 452 38,000 Level FlightAware ADS-B
Wed 12:25:00 AM -24.0736 164.0186 225° Southwest  Level FlightAware Approximate
Wed 12:26:00 AM -24.1551 163.9279 225° Southwest  Level FlightAware Approximate
Wed 12:27:00 AM -24.2366 163.8370 225° Southwest  Level FlightAware Approximate
Wed 12:28:00 AM -24.3180 163.7461 226° Southwest  Level FlightAware Approximate
Wed 12:29:00 AM -24.3993 163.6550 226° Southwest  Level FlightAware Approximate
Wed 12:29:36 AM -24.8519 163.1410 224° Southwest 38,000  Level Aus ATC (Calculated)
Wed 12:31:00 AM -24.9581 163.0240 225° Southwest  Level FlightAware Approximate
Wed 12:32:00 AM -25.0340 162.9402 225° Southwest  Level FlightAware Approximate
Wed 12:32:36 AM -25.1755 162.7786 224° Southwest 38,000  Level Aus ATC (Calculated)
Wed 12:33:00 AM -24.9581 163.0240 45° Northeast  Level FlightAware Approximate
Wed 12:34:00 AM -25.0340 162.9402 225° Southwest  Level FlightAware Approximate
Wed 12:35:00 AM -24.9957 162.9821 46° Northeast  Level FlightAware Approximate
Wed 12:35:00 AM -25.4193 162.5036 224° Southwest 38,000  Level Aus ATC (Calculated)
Wed 12:36:00 AM -25.4932 162.4176 225° Southwest  Level Estimated
Wed 12:37:00 AM -25.5682 162.3325 226° Southwest  Level FlightAware Approximate
Wed 12:37:29 AM -25.6435 162.2491 224° Southwest 38,000  Level Aus ATC (Calculated)
Wed 12:38:00 AM -25.6432 162.2474 226° Southwest  Level FlightAware Approximate
Wed 12:39:00 AM -25.7560 162.1210 226° Southwest  Level FlightAware Approximate
Wed 12:40:00 AM -25.8301 162.0364 226° Southwest  Level FlightAware Approximate
Wed 12:41:00 AM -25.9041 161.9516 226° Southwest  Level FlightAware Approximate
Wed 12:42:00 AM -25.9781 161.8668 226° Southwest  Level FlightAware Approximate
Wed 12:43:00 AM -26.0521 161.7819 226° Southwest  Level FlightAware Approximate
Wed 12:44:00 AM -26.1259 161.6968 226° Southwest  Level FlightAware Approximate
Wed 12:45:00 AM -26.1998 161.6116 226° Southwest  Level FlightAware Approximate
Wed 12:46:00 AM -26.2736 161.5264 226° Southwest  Level FlightAware Approximate
Wed 12:47:00 AM -26.3473 161.4410 226° Southwest  Level FlightAware Approximate
Wed 12:48:00 AM -26.4210 161.3555 226° Southwest  Level FlightAware Approximate
Wed 12:49:00 AM -26.4946 161.2699 226° Southwest  Level FlightAware Approximate
Wed 12:50:00 AM -26.5682 161.1842 226° Southwest  Level FlightAware Approximate
Wed 12:51:00 AM -26.6418 161.0984 226° Southwest  Level FlightAware Approximate
Wed 12:52:00 AM -26.7152 161.0125 226° Southwest  Level FlightAware Approximate
Wed 12:53:00 AM -26.7887 160.9265 226° Southwest  Level FlightAware Approximate
Wed 12:54:00 AM -26.8620 160.8403 226° Southwest  Level FlightAware Approximate
Wed 12:55:00 AM -26.9354 160.7541 226° Southwest  Level FlightAware Approximate
Wed 12:56:00 AM -27.0086 160.6677 226° Southwest  Level FlightAware Approximate
Wed 12:57:00 AM -27.0819 160.5812 226° Southwest  Level FlightAware Approximate
Wed 12:58:00 AM -27.1550 160.4946 226° Southwest  Level FlightAware Approximate
Wed 12:58:03 AM -27.6890 159.8572 222° Southwest 38,000  Level Aus ATC (Calculated)
Wed 12:59:00 AM -27.2281 160.4079 227° Southwest  Level FlightAware Approximate
Wed 01:00:00 AM -27.8308 159.6864 227° Southwest  Level FlightAware Approximate
Wed 01:00:05 AM -27.8660 159.6438 222° Southwest 38,000  Level Aus ATC (Calculated)
Wed 01:02:00 AM -28.0051 159.4753 227° Southwest  Level FlightAware Approximate
Wed 01:02:03 AM -28.0603 159.4082 221° Southwest 38,000  Level Aus ATC (Calculated)
Wed 01:04:00 AM -28.2015 159.2362 227° Southwest  Level FlightAware Approximate
Wed 01:05:00 AM -28.2738 159.1478 227° Southwest  Level FlightAware Approximate
Wed 01:05:46 AM -28.4174 158.9716 219° Southwest 36,000  Level Aus ATC (Calculated)
Wed 01:06:00 AM -28.2015 159.2362 47° Northeast  Level FlightAware Approximate
Wed 01:07:00 AM -28.3284 159.0809 47° Northeast  Level FlightAware Approximate
Wed 01:08:00 AM -28.2562 159.1694 47° Northeast  Level FlightAware Approximate
Wed 01:09:00 AM -28.1840 159.2579 47° Northeast  Level FlightAware Approximate
Wed 01:10:00 AM -28.2562 159.1694 227° Southwest  Level FlightAware Approximate
Wed 01:10:45 AM -28.8242 158.4683 214° Southwest 36,000  Level Aus ATC (Calculated)
Wed 01:11:51 AM -28.9458 158.3166 211° Southwest 36,000 97 Level Aus ATC (Calculated)
Wed 01:12:00 AM -28.7344 158.5800 47° Northeast  Level FlightAware Approximate
Wed 01:13:00 AM -28.8579 158.4263 48° Northeast  Level FlightAware Approximate
Wed 01:13:10 AM -29.0673 158.1645 206° Southwest 36,000  Level Aus ATC (Calculated)
Wed 01:15:00 AM -28.9273 158.3398 48° Northeast  Level FlightAware Approximate
Wed 01:15:25 AM -29.2290 157.9612 190° South 36,000  Level Aus ATC (Calculated)
Wed 01:16:00 AM -28.8508 158.4352 48° Northeast  Level FlightAware Approximate
Wed 01:17:00 AM -29.1083 158.1131 48° Northeast  Level FlightAware Approximate
Wed 01:18:00 AM -29.0320 158.2088 48° Northeast  Level FlightAware Approximate
Wed 01:19:00 AM -29.1064 158.1112 227° Southwest  Level Estimated
Wed 01:20:00 AM -29.1828 158.0154 228° Southwest  Level FlightAware Approximate
Wed 01:20:19 AM -29.6720 157.3987 75° East 36,000  Level Aus ATC (Calculated)
Wed 01:22:00 AM -29.7995 157.2355 228° Southwest  Level FlightAware Approximate
Wed 01:23:00 AM -29.8751 157.1383 228° Southwest  Level FlightAware Approximate
Wed 01:24:00 AM -29.9506 157.0409 228° Southwest  Level FlightAware Approximate
Wed 01:25:00 AM -30.0261 156.9434 228° Southwest  Level FlightAware Approximate
Wed 01:25:19 AM -30.0727 156.8831 60° Northeast 36,000  Level Aus ATC (Calculated)
Wed 01:26:00 AM -30.1015 156.8458 228° Southwest  Level FlightAware Approximate
Wed 01:27:00 AM -30.1995 156.7186 228° Southwest  Level FlightAware Approximate
Wed 01:28:00 AM -30.2747 156.6206 228° Southwest  Level FlightAware Approximate
Wed 01:29:00 AM -30.3499 156.5224 228° Southwest  Level FlightAware Approximate
Wed 01:30:00 AM -30.4249 156.4242 228° Southwest  Level FlightAware Approximate
Wed 01:30:18 AM -30.5110 156.3112 56° Northeast 36,000  Level Aus ATC (Calculated)
Wed 01:31:41 AM -30.6301 156.1544 55° Northeast 36,000 969 Level Aus ATC (Calculated)
Wed 01:32:28 AM -29.5571 157.8949 228° Southwest 427 491 38,100 1,556 Climbing Aus ATC (RADAR)
Wed 01:33:02 AM -29.6081 157.8402 223° Southwest 430 495 38,100  Level Aus ATC (RADAR)
Wed 01:34:12 AM -29.7049 157.7323 224° Southwest 386 444 38,100  Level Aus ATC (RADAR)
Wed 01:34:27 AM -29.7266 157.7094 222° Southwest 410 472 38,100  Level Aus ATC (RADAR)
Wed 01:34:37 AM -29.7402 157.6949 223° Southwest 410 472 38,100  Level Aus ATC (RADAR)
Wed 01:35:27 AM -29.8042 157.6205 225° Southwest 360 414 38,100  Level Aus ATC (RADAR)
Wed 01:37:07 AM -29.9510 157.4613 223° Southwest 423 487 38,100  Level Aus ATC (RADAR)
Wed 01:37:37 AM -29.9842 157.4190 228° Southwest 187 215 38,100  Level Aus ATC (RADAR)
Wed 01:38:12 AM -30.0345 157.3635 224° Southwest 347 399 38,100  Level Aus ATC (RADAR)
Wed 01:39:12 AM -30.1226 157.2673 223° Southwest 406 467 38,100  Level Aus ATC (RADAR)
Wed 01:39:42 AM -30.1664 157.2194 223° Southwest 417 480 38,100  Level Aus ATC (RADAR)
Wed 01:40:17 AM -30.2157 157.1643 224° Southwest 421 484 38,100  Level Aus ATC (RADAR)
Wed 01:40:57 AM -30.2724 157.1010 224° Southwest 423 487 38,100  Level Aus ATC (RADAR)
Wed 01:41:27 AM -30.3149 157.0534 224° Southwest 423 487 38,100  Level Aus ATC (RADAR)
Wed 01:42:02 AM -30.3633 156.9989 224° Southwest 420 483 38,100  Level Aus ATC (RADAR)
Wed 01:43:02 AM -30.4479 156.9039 224° Southwest 423 487 38,100  Level Aus ATC (RADAR)
Wed 01:43:36 AM -30.4971 156.8483 224° Southwest 423 487 38,100  Level Aus ATC (RADAR)
Wed 01:44:41 AM -30.5884 156.7454 224° Southwest 422 486 38,100  Level Aus ATC (RADAR)
Wed 01:45:07 AM -30.6232 156.7063 224° Southwest 421 484 38,100  Level Aus ATC (RADAR)
Wed 01:45:36 AM -30.6650 156.6589 224° Southwest 421 484 38,100  Level Aus ATC (RADAR)
Wed 01:46:26 AM -30.7351 156.5794 224° Southwest 422 486 38,100  Level Aus ATC (RADAR)
Wed 01:47:01 AM -30.7840 156.5239 224° Southwest 421 484 38,100 -75 Level Aus ATC (RADAR)
Wed 01:47:46 AM -30.8463 156.4529 224° Southwest 419 482 38,000 -80 Descending Aus ATC (RADAR)
Wed 01:48:16 AM -30.8877 156.4057 224° Southwest 418 481 38,000  Level Aus ATC (RADAR)
Wed 01:48:51 AM -30.9356 156.3509 224° Southwest 415 478 38,000 55 Level Aus ATC (RADAR)
Wed 01:50:06 AM -31.0373 156.2344 224° Southwest 411 473 38,100  Climbing Aus ATC (RADAR)
Wed 01:50:26 AM -31.0646 156.2034 224° Southwest 411 473 38,000 -100 Descending Aus ATC (RADAR)
Wed 01:51:06 AM -31.1193 156.1404 225° Southwest 413 475 38,000  Level Aus ATC (RADAR)
Wed 01:51:56 AM -31.1878 156.0616 225° Southwest 415 478 38,000  Level Aus ATC (RADAR)
Wed 01:52:07 AM -31.1920 156.0570 224° Southwest 414 476 38,000  Level FlightAware ADS-B
Wed 01:52:30 AM -31.2355 156.0069 224° Southwest 413 475 38,000  Level Aus ATC (RADAR)
Wed 01:52:45 AM -31.2360 156.0070 224° Southwest 414 476 38,000  Level FlightAware ADS-B
Wed 01:53:30 AM -31.3170 155.9129 224° Southwest 412 474 38,000  Level Aus ATC (RADAR)
Wed 01:53:47 AM -31.3300 155.8980 225° Southwest 462 532 38,000  Level FlightAware ADS-B
Wed 01:53:50 AM -31.3439 155.8816 225° Southwest 411 473 38,000  Level Aus ATC (RADAR)
Wed 01:55:20 AM -31.4662 155.7398 225° Southwest 413 475 38,000  Level Aus ATC (RADAR)
Wed 01:55:35 AM -31.4868 155.7159 225° Southwest 415 478 38,000  Level Aus ATC (RADAR)
Wed 01:56:15 AM -31.5417 155.6521 225° Southwest 417 480 38,000  Level Aus ATC (RADAR)
Wed 01:56:55 AM -31.5969 155.5881 225° Southwest 420 483 38,000  Level Aus ATC (RADAR)
Wed 01:57:30 AM -31.6444 155.5322 225° Southwest 417 480 38,000  Level Aus ATC (RADAR)
Wed 01:58:20 AM -31.7154 155.4506 224° Southwest 430 495 38,000  Level Aus ATC (RADAR)
Wed 01:58:40 AM -31.7412 155.4191 226° Southwest 420 483 38,000  Level Aus ATC (RADAR)
Wed 01:59:15 AM -31.7898 155.3623 225° Southwest 423 487 38,000  Level Aus ATC (RADAR)
Wed 02:00:18 AM -31.8650 155.2730 225° Southwest 426 490 38,000  Level FlightAware ADS-B
Wed 02:00:25 AM -31.8870 155.2480 225° Southwest 425 489 38,000  Level Aus ATC (RADAR)
Wed 02:00:40 AM -31.9081 155.2233 225° Southwest 426 490 38,000  Level Aus ATC (RADAR)
Wed 02:01:12 AM -31.9430 155.1820 225° Southwest 427 491 38,000  Level FlightAware ADS-B
Wed 02:01:15 AM -31.9569 155.1659 225° Southwest 427 491 38,000  Level Aus ATC (RADAR)
Wed 02:01:48 AM -31.9920 155.1240 225° Southwest 425 489 38,000  Level FlightAware ADS-B
Wed 02:01:59 AM -32.0189 155.0923 225° Southwest 425 489 38,000  Level Aus ATC (RADAR)
Wed 02:02:34 AM -32.0673 155.0348 225° Southwest 425 489 38,000  Level Aus ATC (RADAR)
Wed 02:02:41 AM -32.0720 155.0290 225° Southwest 425 489 38,000  Level FlightAware ADS-B
Wed 02:03:19 AM -32.1296 154.9612 225° Southwest 424 488 38,000  Level Aus ATC (RADAR)
Wed 02:03:42 AM -32.1540 154.9320 225° Southwest 425 489 38,000  Level FlightAware ADS-B
Wed 02:03:49 AM -32.1712 154.9122 225° Southwest 424 488 38,000  Level Aus ATC (RADAR)
Wed 02:04:17 AM -32.2020 154.8740 225° Southwest 425 489 38,000  Level FlightAware ADS-B
Wed 02:04:24 AM -32.2192 154.8551 225° Southwest 422 486 38,000  Level Aus ATC (RADAR)
Wed 02:04:39 AM -32.2360 154.8350 224° Southwest 426 490 38,000  Level FlightAware ADS-B
Wed 02:05:23 AM -32.2860 154.7750 225° Southwest 427 491 38,000  Level FlightAware ADS-B
Wed 02:06:14 AM -32.3719 154.6723 225° Southwest 427 491 38,000  Level Aus ATC (RADAR)
Wed 02:06:22 AM -32.3760 154.6670 225° Southwest 429 494 38,000  Level FlightAware ADS-B
Wed 02:06:29 AM -32.3928 154.6474 225° Southwest 427 491 38,000  Level Aus ATC (RADAR)
Wed 02:06:50 AM -32.4090 154.6280 225° Southwest 429 494 38,000  Level FlightAware ADS-B
Wed 02:07:09 AM -32.4488 154.5804 225° Southwest 431 496 38,000  Level Aus ATC (RADAR)
Wed 02:07:35 AM -32.4790 154.5440 225° Southwest 432 497 38,000  Level FlightAware ADS-B
Wed 02:07:54 AM -32.5121 154.5049 225° Southwest 432 497 38,000  Level Aus ATC (RADAR)
Wed 02:08:29 AM -32.5610 154.4461 225° Southwest 431 496 38,000  Level Aus ATC (RADAR)
Wed 02:08:37 AM -32.5610 154.4450 225° Southwest 432 497 38,000  Level FlightAware ADS-B
Wed 02:09:08 AM -32.6100 154.3860 225° Southwest 432 497 38,000  Level FlightAware ADS-B
Wed 02:09:19 AM -32.6311 154.3616 225° Southwest 433 498 38,000  Level Aus ATC (RADAR)
Wed 02:09:34 AM -32.6520 154.3364 225° Southwest 432 497 38,000  Level Aus ATC (RADAR)
Wed 02:09:48 AM -32.6600 154.3260 225° Southwest 432 497 38,000  Level FlightAware ADS-B
Wed 02:10:17 AM -32.7090 154.2670 225° Southwest 434 499 38,000  Level FlightAware ADS-B
Wed 02:10:29 AM -32.7292 154.2431 225° Southwest 433 498 38,000 -128 Level Aus ATC (RADAR)
Wed 02:11:04 AM -32.7781 154.1833 225° Southwest 434 499 37,900  Descending Aus ATC (RADAR)
Wed 02:11:14 AM -32.7880 154.1710 225° Southwest 435 501 38,000  Climbing FlightAware ADS-B
Wed 02:11:43 AM -32.8344 154.1153 225° Southwest 434 499 37,900  Descending Aus ATC (RADAR)
Wed 02:11:57 AM -32.8380 154.1100 226° Southwest 435 501 38,000 140 Climbing FlightAware ADS-B
Wed 02:12:26 AM -32.8870 154.0510 226° Southwest 436 502 38,000 -194 Level FlightAware ADS-B
Wed 02:12:28 AM -32.8972 154.0388 226° Southwest 436 502 37,900  Descending Aus ATC (RADAR)
Wed 02:12:54 AM -32.9280 154.0010 226° Southwest 434 499 38,000  Climbing FlightAware ADS-B
Wed 02:13:28 AM -32.9816 153.9367 226° Southwest 434 499 37,900  Descending Aus ATC (RADAR)
Wed 02:13:59 AM -33.0190 153.8900 226° Southwest 432 497 38,000  Climbing FlightAware ADS-B
Wed 02:14:48 AM -33.0929 153.7996 226° Southwest 436 502 37,900  Descending Aus ATC (RADAR)
Wed 02:14:51 AM -33.0920 153.8010 226° Southwest 434 499 38,000 125 Climbing FlightAware ADS-B
Wed 02:15:36 AM -33.1530 153.7260 225° Southwest 434 499 38,000 -97 Level FlightAware ADS-B
Wed 02:15:53 AM -33.1835 153.6883 226° Southwest 434 499 37,900 -188 Descending Aus ATC (RADAR)
Wed 02:16:08 AM -33.2045 153.6628 225° Southwest 433 498 37,900  Level Aus ATC (RADAR)
Wed 02:16:44 AM -33.2521 153.6039 225° Southwest 423 487 37,900 150 Level Aus ATC (RADAR)
Wed 02:16:48 AM -33.2550 153.6000 225° Southwest 434 499 38,000  Climbing FlightAware ADS-B
Wed 02:17:28 AM -33.3166 153.5247 225° Southwest 437 503 37,900  Descending Aus ATC (RADAR)
Wed 02:17:52 AM -33.3460 153.4880 226° Southwest 437 503 38,000  Climbing FlightAware ADS-B
Wed 02:18:08 AM -33.3727 153.4554 226° Southwest 438 504 37,900  Descending Aus ATC (RADAR)
Wed 02:18:52 AM -33.4320 153.3820 226° Southwest 438 504 38,000  Climbing FlightAware ADS-B
Wed 02:18:53 AM -33.4359 153.3772 226° Southwest 437 503 37,900 -400 Descending Aus ATC (RADAR)
Wed 02:19:07 AM -33.4570 153.3512 226° Southwest 438 504 37,900 182 Level Aus ATC (RADAR)
Wed 02:19:26 AM -33.4780 153.3240 226° Southwest 437 503 38,000  Climbing FlightAware ADS-B
Wed 02:19:47 AM -33.5131 153.2815 226° Southwest 437 503 37,900  Descending Aus ATC (RADAR)
Wed 02:19:57 AM -33.5200 153.2730 225° Southwest 437 503 38,000 128 Climbing FlightAware ADS-B
Wed 02:20:34 AM -33.5710 153.2090 226° Southwest 436 502 38,000  Level FlightAware ADS-B
Wed 02:21:26 AM -33.6450 153.1160 226° Southwest 435 501 38,000 -113 Level FlightAware ADS-B
Wed 02:21:27 AM -33.6523 153.1077 226° Southwest 434 499 37,900 -167 Descending Aus ATC (RADAR)
Wed 02:22:02 AM -33.7010 153.0472 226° Southwest 433 498 37,900  Level Aus ATC (RADAR)
Wed 02:22:21 AM -33.7210 153.0210 226° Southwest 430 495 37,900 -1,102 Level FlightAware ADS-B
Wed 02:22:51 AM -33.7640 152.9680 226° Southwest 423 487 37,000 -2,195 Descending FlightAware ADS-B
Wed 02:23:02 AM -33.7822 152.9442 226° Southwest 425 489 36,400 -2,727 Descending Aus ATC (RADAR)
Wed 02:23:24 AM -33.8060 152.9140 226° Southwest 425 489 35,500 -3,200 Descending FlightAware ADS-B
Wed 02:23:32 AM -33.8218 152.8944 226° Southwest 423 487 34,800 -3,517 Descending Aus ATC (RADAR)
Wed 02:24:22 AM -33.8921 152.8062 226° Southwest 434 499 32,100 -2,893 Descending Aus ATC (RADAR)
Wed 02:24:28 AM -33.8960 152.8010 226° Southwest 432 497 32,100 -2,400 Level FlightAware ADS-B
Wed 02:24:37 AM -33.9128 152.7804 226° Southwest 433 498 31,500 -2,375 Descending Aus ATC (RADAR)
Wed 02:25:16 AM -33.9590 152.7220 226° Southwest 420 483 30,200 -2,291 Descending FlightAware ADS-B
Wed 02:25:32 AM -33.9868 152.6871 226° Southwest 421 484 29,400 -2,357 Descending Aus ATC (RADAR)
Wed 02:25:44 AM -33.9970 152.6730 226° Southwest 413 475 29,100 -2,483 Descending FlightAware ADS-B
Wed 02:26:01 AM -34.0248 152.6389 226° Southwest 408 470 28,200 -2,400 Descending Aus ATC (RADAR)
Wed 02:26:24 AM -34.0490 152.6070 226° Southwest 402 463 27,500 -2,308 Descending FlightAware ADS-B
Wed 02:26:27 AM -34.0578 152.5970 226° Southwest 405 466 27,200 -2,250 Descending Aus ATC (RADAR)
Wed 02:27:04 AM -34.0780 152.5320 226° Southwest 361 415 26,000 -2,250 Descending FlightAware ADS-B
Wed 02:27:07 AM -34.0805 152.5186 226° Southwest 393 452 25,700 -2,200 Descending Aus ATC (RADAR)
Wed 02:27:34 AM -34.0730 152.4730 226° Southwest 354 407 24,900 -2,267 Descending FlightAware ADS-B
Wed 02:27:52 AM -34.0698 152.4313 226° Southwest 355 409 24,000 -2,233 Descending Aus ATC (RADAR)
Wed 02:28:17 AM -34.0660 152.3910 226° Southwest 363 418 23,300 -2,229 Descending FlightAware ADS-B
Wed 02:28:27 AM -34.0629 152.3613 226° Southwest 359 413 22,700 -2,308 Descending Aus ATC (RADAR)
Wed 02:29:09 AM -34.0560 152.2840 276° West 354 407 21,300 -2,267 Descending FlightAware ADS-B
Wed 02:29:12 AM -34.0546 152.2725 226° Southwest 354 407 21,000 -2,667 Descending Aus ATC (RADAR)
Wed 02:29:36 AM -34.0503 152.2243 276° West 348 400 20,100 -2,449 Descending Aus ATC (RADAR)
Wed 02:30:01 AM -34.0453 152.1777 277° West 339 390 19,000 -2,143 Descending FlightAware ADS-B
Wed 02:30:46 AM -34.0372 152.0939 277° West 330 380 17,600 -1,948 Descending FlightAware ADS-B
Wed 02:31:18 AM -34.0316 152.0362 277° West 324 373 16,500 -1,969 Descending FlightAware ADS-B
Wed 02:31:50 AM -34.0260 151.9798 277° West 320 368 15,500 -2,226 Descending FlightAware ADS-B
Wed 02:32:20 AM -34.0206 151.9280 277° West 316 364 14,200 -2,229 Descending FlightAware ADS-B
Wed 02:33:00 AM -34.0137 151.8591 277° West 314 361 12,900 -1,974 Descending FlightAware ADS-B
Wed 02:33:36 AM -34.0067 151.7953 277° West 310 357 11,700 -1,875 Descending Aus ATC (RADAR)
Wed 02:33:48 AM -34.0051 151.7746 277° West 315 362 11,400 -1,814 Descending FlightAware ADS-B
Wed 02:34:19 AM -34.0005 151.7209 276° West 313 360 10,400 -1,475 Descending FlightAware ADS-B
Wed 02:34:49 AM -33.9956 151.6697 277° West 310 357 9,900 -1,000 Descending FlightAware ADS-B
Wed 02:35:07 AM -33.9922 151.6379 277° West 310 357 9,600 -1,067 Descending FlightAware ADS-B
Wed 02:35:34 AM -33.9956 151.6697 97° East 311 358 9,100 -1,469 Descending FlightAware ADS-B
Wed 02:35:56 AM -33.9830 151.5551 277° West 308 354 8,400 -2,270 Descending FlightAware ADS-B
Wed 02:36:11 AM -33.9799 151.5290 278° West 308 354 7,700 -1,742 Descending FlightAware ADS-B
Wed 02:36:27 AM -33.9766 151.5030 279° West 297 342 7,500 -545 Descending FlightAware ADS-B
Wed 02:36:44 AM -33.9731 151.4756 279° West 277 319 7,400 -343 Descending FlightAware ADS-B
Wed 02:37:02 AM -33.9705 151.4530 278° West 263 303 7,300 -857 Descending FlightAware ADS-B
Wed 02:37:12 AM -33.9724 151.4339 263° West 263 303 7,000 -1,846 Descending FlightAware ADS-B
Wed 02:37:15 AM -33.9733 151.4310 250° West 264 304 6,900 -2,000 Descending FlightAware ADS-B
Wed 02:37:21 AM -33.9765 151.4234 243° Southwest 267 307 6,700 -2,143 Descending FlightAware ADS-B
Wed 02:37:29 AM -33.9823 151.4145 232° Southwest 271 312 6,400 -1,286 Descending FlightAware ADS-B
Wed 02:37:35 AM -33.9827 151.4140 222° Southwest 271 312 6,400 -667 Level FlightAware ADS-B
Wed 02:37:38 AM -33.9928 151.4053 215° Southwest 267 307 6,300 -1,364 Descending FlightAware ADS-B
Wed 02:37:57 AM -34.0143 151.3953 201° Southwest 273 314 5,900 -1,241 Descending FlightAware ADS-B
Wed 02:38:07 AM -34.0268 151.3899 200° South 272 313 5,700 -1,600 Descending FlightAware ADS-B
Wed 02:38:27 AM -34.0507 151.3794 200° South 272 313 5,100 -1,650 Descending FlightAware ADS-B
Wed 02:38:47 AM -34.0734 151.3696 200° South 271 312 4,600 -1,350 Descending FlightAware ADS-B
Wed 02:39:07 AM -34.0976 151.3590 200° South 266 306 4,200 -973 Descending FlightAware ADS-B
Wed 02:39:24 AM -34.1178 151.3500 200° South 265 305 4,000 -811 Descending FlightAware ADS-B
Wed 02:39:44 AM -34.1390 151.3374 206° Southwest 254 292 3,700 -581 Descending FlightAware ADS-B
Wed 02:39:55 AM -34.1460 151.3265 232° Southwest 242 278 3,700 -286 Level FlightAware ADS-B
Wed 02:40:05 AM -34.1501 151.3140 248° West 231 266 3,600 -222 Descending FlightAware ADS-B
Wed 02:40:22 AM -34.1557 151.2940 252° West 218 251 3,600 -182 Level FlightAware ADS-B
Wed 02:40:38 AM -34.1591 151.2750 257° West 202 232 3,500 -462 Descending FlightAware ADS-B
Wed 02:40:48 AM -34.1581 151.2681 281° West 196 226 3,400 -923 Descending FlightAware ADS-B
Wed 02:40:51 AM -34.1556 151.2625 298° West 201 231 3,300 -600 Descending FlightAware ADS-B
Wed 02:40:58 AM -34.1537 151.2596 310° West 190 219 3,300 -500 Level FlightAware ADS-B
Wed 02:41:03 AM -34.1491 151.2547 318° Northwest 189 217 3,200 -706 Descending FlightAware ADS-B
Wed 02:41:15 AM -34.1395 151.2456 322° Northwest 187 215 3,100 -581 Descending FlightAware ADS-B
Wed 02:41:34 AM -34.1368 151.2431 322° Northwest 186 214 2,900 -545 Descending FlightAware ADS-B
Wed 02:41:48 AM -34.1368 151.2431 322° Northwest 186 214 2,800 -649 Descending FlightAware ADS-B
Wed 02:42:11 AM -34.1008 151.2159 328° Northwest 169 194 2,500 -577 Descending FlightAware ADS-B
Wed 02:42:40 AM -34.0788 151.2104 348° North 167 192 2,300 -692 Descending FlightAware ADS-B
Wed 02:43:03 AM -34.0617 151.2059 348° North 164 189 1,900 -837 Descending FlightAware ADS-B
Wed 02:43:23 AM -34.0474 151.2021 348° North 151 174 1,700 -698 Descending FlightAware ADS-B
Wed 02:43:46 AM -34.0329 151.1983 348° North 138 159 1,400 -818 Descending FlightAware ADS-B
Wed 02:44:07 AM -34.0193 151.1949 348° North 138 159 1,100 -698 Descending FlightAware ADS-B
Wed 02:44:29 AM -34.0060 151.1914 348° North 138 159 900 -615 Descending FlightAware ADS-B
Wed 02:44:46 AM -33.9956 151.1888 348° North 135 155 700 -679 Descending FlightAware ADS-B
Wed 02:45:22 AM -33.9740 151.1830 348° North 131 151 300 -667 Descending FlightAware ADS-B
Wed 02:45:52 AM -33.9560 151.1780 348° North 119 137 -600 Descending FlightAware ADS-B
Wed 02:46:00 AM -33.9506 151.1772 348° North 121 139  Level Aus ATC (RADAR)

Login

Don't have an account? Register now (free) for customized features, flight alerts, and more!